createdAt,value
2023-01-19T00:01:12.889Z,0
2023-01-19T00:03:19.427Z,0
2023-01-19T00:05:24.540Z,0
2023-01-19T00:06:28.662Z,0
2023-01-19T00:07:31.469Z,0
2023-01-19T00:08:34.723Z,0
2023-01-19T00:10:41.216Z,0
2023-01-19T00:11:44.495Z,0
2023-01-19T00:12:47.591Z,0
2023-01-19T00:13:52.129Z,0
2023-01-19T00:15:58.712Z,0
2023-01-19T00:18:05.021Z,0
2023-01-19T00:19:08.589Z,0
2023-01-19T00:21:14.254Z,0
2023-01-19T00:23:20.460Z,0
2023-01-19T00:25:27.537Z,0
2023-01-19T00:26:30.727Z,0
2023-01-19T00:28:37.179Z,0
2023-01-19T00:30:44.120Z,0
2023-01-19T00:32:51.036Z,0
2023-01-19T00:33:55.289Z,0
2023-01-19T00:36:01.138Z,0
2023-01-19T00:38:06.763Z,0
2023-01-19T00:40:12.500Z,0
2023-01-19T00:41:15.750Z,0
2023-01-19T00:43:21.555Z,0
2023-01-19T00:45:28.617Z,0
2023-01-19T00:47:33.932Z,0
2023-01-19T00:48:37.280Z,0
2023-01-19T00:50:43.802Z,0
2023-01-19T00:52:49.110Z,0
2023-01-19T00:54:55.227Z,0
2023-01-19T00:55:58.131Z,0
2023-01-19T00:58:03.931Z,0
2023-01-19T01:00:10.132Z,0
2023-01-19T01:02:20.064Z,0
2023-01-19T01:03:23.774Z,0
2023-01-19T01:05:29.875Z,0
2023-01-19T01:07:36.122Z,0
2023-01-19T01:09:43.003Z,0
2023-01-19T01:10:45.693Z,0
2023-01-19T01:13:28.497Z,0
2023-01-19T01:14:33.730Z,0
2023-01-19T01:15:36.752Z,0
2023-01-19T01:17:44.351Z,0
2023-01-19T01:19:49.542Z,0
2023-01-19T01:21:59.178Z,0
2023-01-19T01:23:04.836Z,0
2023-01-19T01:25:10.189Z,0
2023-01-19T01:27:16.397Z,0
2023-01-19T01:29:23.643Z,0
2023-01-19T01:30:26.800Z,0
2023-01-19T01:32:34.554Z,0
2023-01-19T01:33:43.725Z,0
2023-01-19T01:34:46.811Z,0
2023-01-19T01:36:52.915Z,0
2023-01-19T01:37:55.912Z,0
2023-01-19T01:38:58.690Z,0
2023-01-19T01:40:01.767Z,0
2023-01-19T01:42:07.996Z,0
2023-01-19T01:43:10.541Z,0
2023-01-19T01:44:14.548Z,0
2023-01-19T01:45:17.446Z,0
2023-01-19T01:47:24.602Z,0
2023-01-19T01:48:28.440Z,0
2023-01-19T01:49:31.260Z,0
2023-01-19T01:50:33.784Z,0
2023-01-19T01:52:40.116Z,0
2023-01-19T01:53:43.485Z,0
2023-01-19T01:55:49.233Z,0
2023-01-19T01:57:56.329Z,0
2023-01-19T01:58:59.949Z,0
2023-01-19T02:01:05.428Z,0
2023-01-19T02:03:14.424Z,0
2023-01-19T02:04:18.185Z,0
2023-01-19T02:06:24.021Z,0
2023-01-19T02:08:30.851Z,0
2023-01-19T02:10:36.570Z,0
2023-01-19T02:11:39.656Z,0
2023-01-19T02:13:45.431Z,0
2023-01-19T02:15:51.845Z,0
2023-01-19T02:17:59.307Z,0
2023-01-19T02:19:02.111Z,0
2023-01-19T02:21:09.934Z,0
2023-01-19T02:22:12.637Z,0
2023-01-19T02:24:18.674Z,0
2023-01-19T02:26:25.450Z,0
2023-01-19T02:28:31.643Z,0
2023-01-19T02:29:34.630Z,0
2023-01-19T02:31:41.155Z,0
2023-01-19T02:33:47.559Z,0
2023-01-19T02:35:54.361Z,0
2023-01-19T02:36:57.831Z,0
2023-01-19T02:39:03.015Z,0
2023-01-19T02:41:09.163Z,0
2023-01-19T02:42:12.721Z,0
2023-01-19T02:44:18.579Z,0
2023-01-19T02:46:25.356Z,0
2023-01-19T02:48:31.287Z,0
2023-01-19T02:49:34.353Z,0
2023-01-19T02:51:41.151Z,0
2023-01-19T02:53:46.679Z,0
2023-01-19T02:54:49.659Z,0
2023-01-19T02:56:56.078Z,0
2023-01-19T02:59:01.666Z,0
2023-01-19T03:00:04.218Z,0
2023-01-19T03:02:11.915Z,0
2023-01-19T03:03:15.504Z,0
2023-01-19T03:05:21.626Z,0
2023-01-19T03:07:28.736Z,0
2023-01-19T03:08:32.239Z,0
2023-01-19T03:10:38.347Z,0
2023-01-19T03:12:44.363Z,0
2023-01-19T03:13:47.221Z,0
2023-01-19T03:15:55.104Z,0
2023-01-19T03:16:58.772Z,0
2023-01-19T03:18:01.602Z,0
2023-01-19T03:19:05.344Z,0
2023-01-19T03:21:11.918Z,0
2023-01-19T03:22:15.640Z,0
2023-01-19T03:24:22.671Z,0
2023-01-19T03:26:27.478Z,0
2023-01-19T03:27:30.235Z,0
2023-01-19T03:28:33.880Z,0
2023-01-19T03:29:36.883Z,0
2023-01-19T03:31:43.774Z,0
2023-01-19T03:32:46.783Z,0
2023-01-19T03:34:52.477Z,0
2023-01-19T03:36:58.351Z,0
2023-01-19T03:38:02.069Z,0
2023-01-19T03:39:05.967Z,0
2023-01-19T03:40:09.525Z,0
2023-01-19T03:42:16.435Z,0
2023-01-19T03:44:22.421Z,0
2023-01-19T03:45:25.793Z,0
2023-01-19T03:46:29.948Z,0
2023-01-19T03:47:33.236Z,0
2023-01-19T03:49:39.599Z,0
2023-01-19T03:50:42.036Z,0
2023-01-19T03:51:45.335Z,0
2023-01-19T03:52:47.829Z,0
2023-01-19T03:54:54.688Z,0
2023-01-19T03:55:57.491Z,0
2023-01-19T03:57:00.500Z,0
2023-01-19T03:58:03.724Z,0
2023-01-19T04:00:09.847Z,0
2023-01-19T04:01:14.150Z,0
2023-01-19T04:02:17.989Z,0
2023-01-19T04:03:22.033Z,0
2023-01-19T04:05:27.947Z,0
2023-01-19T04:07:34.638Z,0
2023-01-19T04:08:38.659Z,0
2023-01-19T04:10:45.638Z,0
2023-01-19T04:12:51.339Z,0
2023-01-19T04:14:57.998Z,0
2023-01-19T04:16:01.306Z,0
2023-01-19T04:18:06.951Z,0
2023-01-19T04:20:13.659Z,0
2023-01-19T04:22:19.168Z,0
2023-01-19T04:23:22.399Z,0
2023-01-19T04:25:28.649Z,0
2023-01-19T04:27:35.280Z,0
2023-01-19T04:29:40.948Z,0
2023-01-19T04:30:43.935Z,0
2023-01-19T04:32:50.491Z,0
2023-01-19T04:34:56.556Z,0
2023-01-19T04:37:02.680Z,0
2023-01-19T04:38:06.322Z,0
2023-01-19T04:40:12.532Z,0
2023-01-19T04:42:19.232Z,0
2023-01-19T04:44:26.061Z,0
2023-01-19T04:45:28.843Z,0
2023-01-19T04:47:35.244Z,0
2023-01-19T04:49:44.908Z,0
2023-01-19T04:51:52.110Z,0
2023-01-19T04:52:55.024Z,0
2023-01-19T04:55:01.528Z,0
2023-01-19T04:57:07.737Z,0
2023-01-19T04:59:15.553Z,0
2023-01-19T05:00:18.621Z,0
2023-01-19T05:01:22.678Z,0
2023-01-19T05:02:26.463Z,0
2023-01-19T05:04:32.354Z,0
2023-01-19T05:05:35.716Z,0
2023-01-19T05:06:38.817Z,0
2023-01-19T05:07:41.525Z,0
2023-01-19T05:09:49.971Z,0
2023-01-19T05:11:56.578Z,0
2023-01-19T05:13:02.897Z,0
2023-01-19T05:15:09.946Z,0
2023-01-19T05:17:16.083Z,0
2023-01-19T05:19:21.367Z,0
2023-01-19T05:20:24.665Z,0
2023-01-19T05:22:30.873Z,0
2023-01-19T05:24:37.746Z,0
2023-01-19T05:26:44.437Z,0
2023-01-19T05:27:47.874Z,0
2023-01-19T05:29:55.266Z,0
2023-01-19T05:32:02.895Z,0
2023-01-19T05:34:08.026Z,0
2023-01-19T05:35:10.795Z,0
2023-01-19T05:37:17.234Z,0
2023-01-19T05:38:37.412Z,0
2023-01-19T05:39:40.647Z,0
2023-01-19T05:41:47.352Z,0
2023-01-19T05:42:50.791Z,0
2023-01-19T05:43:54.211Z,0
2023-01-19T05:44:58.037Z,0
2023-01-19T05:47:05.138Z,0
2023-01-19T05:49:13.293Z,0
2023-01-19T05:50:16.204Z,0
2023-01-19T05:52:22.103Z,0
2023-01-19T05:54:27.303Z,0
2023-01-19T05:55:30.736Z,0
2023-01-19T05:56:34.124Z,0
2023-01-19T05:57:37.314Z,0
2023-01-19T05:59:43.608Z,0
2023-01-19T06:01:51.560Z,0
2023-01-19T06:02:54.804Z,0
2023-01-19T06:05:00.796Z,0
2023-01-19T06:07:06.524Z,0
2023-01-19T06:09:13.046Z,0
2023-01-19T06:10:16.767Z,0
2023-01-19T06:12:22.650Z,0
2023-01-19T06:14:28.358Z,0
2023-01-19T06:16:35.749Z,0
2023-01-19T06:17:39.683Z,0
2023-01-19T06:19:46.707Z,0
2023-01-19T06:21:52.895Z,0
2023-01-19T06:23:59.135Z,0
2023-01-19T06:25:02.559Z,0
2023-01-19T06:27:08.431Z,0
2023-01-19T06:29:15.264Z,0
2023-01-19T06:31:21.117Z,0
2023-01-19T06:32:25.246Z,0
2023-01-19T06:34:32.327Z,0
2023-01-19T06:36:38.747Z,0
2023-01-19T06:38:45.312Z,0
2023-01-19T06:39:49.012Z,0
2023-01-19T06:41:54.616Z,0
2023-01-19T06:44:01.534Z,0
2023-01-19T06:46:08.095Z,0
2023-01-19T06:47:18.288Z,0
2023-01-19T06:48:22.440Z,0
2023-01-19T06:49:26.164Z,0
2023-01-19T06:51:33.182Z,0
2023-01-19T06:53:38.859Z,0
2023-01-19T06:55:45.634Z,0
2023-01-19T06:56:48.811Z,0
2023-01-19T06:58:55.027Z,0
2023-01-19T07:01:01.671Z,0
2023-01-19T07:02:31.628Z,0
2023-01-19T07:03:35.612Z,0
2023-01-19T07:04:39.311Z,0
2023-01-19T07:06:46.410Z,0
2023-01-19T07:08:52.648Z,0
2023-01-19T07:11:34.201Z,0
2023-01-19T07:12:38.411Z,0
2023-01-19T07:13:41.502Z,0
2023-01-19T07:15:48.936Z,0
2023-01-19T07:16:52.526Z,0
2023-01-19T07:18:59.886Z,1
2023-01-19T07:21:06.457Z,1
2023-01-19T07:23:12.811Z,1
2023-01-19T07:24:16.198Z,1
2023-01-19T07:26:23.607Z,1
2023-01-19T07:28:30.480Z,1
2023-01-19T07:30:38.405Z,2
2023-01-19T07:31:42.708Z,2
2023-01-19T07:32:46.082Z,2
2023-01-19T07:33:49.178Z,2
2023-01-19T07:35:56.818Z,2
2023-01-19T07:38:03.470Z,3
2023-01-19T07:39:07.128Z,3
2023-01-19T07:41:13.977Z,4
2023-01-19T07:43:20.677Z,5
2023-01-19T07:45:30.184Z,4
2023-01-19T07:46:32.987Z,4
2023-01-19T07:48:38.579Z,4
2023-01-19T07:50:46.330Z,4
2023-01-19T07:52:53.516Z,4
2023-01-19T07:53:56.785Z,5
2023-01-19T07:56:03.385Z,6
2023-01-19T07:58:09.412Z,6
2023-01-19T08:00:16.355Z,8
2023-01-19T08:01:21.041Z,8
2023-01-19T08:02:25.545Z,8
2023-01-19T08:03:28.627Z,8
2023-01-19T08:05:35.916Z,8
2023-01-19T08:06:39.605Z,9
2023-01-19T08:07:43.503Z,10
2023-01-19T08:08:46.944Z,10
2023-01-19T08:10:52.985Z,11
2023-01-19T08:11:56.717Z,11
2023-01-19T08:13:01.702Z,11
2023-01-19T08:14:08.616Z,12
2023-01-19T08:16:15.164Z,13
2023-01-19T08:18:21.242Z,17
2023-01-19T08:20:28.518Z,20
2023-01-19T08:21:30.709Z,24
2023-01-19T08:23:38.133Z,27
2023-01-19T08:25:45.316Z,30
2023-01-19T08:26:48.943Z,28
2023-01-19T08:27:52.226Z,29
2023-01-19T08:28:55.841Z,29
2023-01-19T08:31:26.490Z,25
2023-01-19T08:33:33.284Z,20
2023-01-19T08:35:40.401Z,20
2023-01-19T08:36:44.446Z,22
2023-01-19T08:38:52.165Z,24
2023-01-19T08:40:58.947Z,32
2023-01-19T08:43:06.019Z,30
2023-01-19T08:44:09.799Z,26
2023-01-19T08:46:16.661Z,26
2023-01-19T08:48:23.133Z,26
2023-01-19T08:50:30.097Z,38
2023-01-19T08:51:33.606Z,40
2023-01-19T08:52:36.869Z,40
2023-01-19T08:53:40.672Z,39
2023-01-19T08:55:47.551Z,33
2023-01-19T08:56:50.956Z,33
2023-01-19T08:57:54.392Z,32
2023-01-19T09:07:06.937Z,33
2023-01-19T09:08:10.917Z,53
2023-01-19T09:09:14.456Z,46
2023-01-19T09:11:21.527Z,40
2023-01-19T09:13:28.919Z,40
2023-01-19T09:15:36.144Z,37
2023-01-19T09:16:39.389Z,37
2023-01-19T09:18:45.307Z,35
2023-01-19T09:20:52.523Z,36
2023-01-19T09:22:58.459Z,35
2023-01-19T09:24:01.258Z,34
2023-01-19T09:25:05.149Z,34
2023-01-19T09:26:08.553Z,37
2023-01-19T09:28:15.155Z,41
2023-01-19T09:29:17.620Z,39
2023-01-19T09:30:21.373Z,38
2023-01-19T09:31:26.237Z,37
2023-01-19T09:33:33.363Z,38
2023-01-19T09:35:40.880Z,35
2023-01-19T09:37:48.095Z,47
2023-01-19T09:38:51.610Z,48
2023-01-19T09:40:59.100Z,41
2023-01-19T09:43:06.791Z,36
2023-01-19T09:45:14.872Z,43
2023-01-19T09:46:18.892Z,47
2023-01-19T09:48:25.735Z,50
2023-01-19T09:50:31.792Z,51
2023-01-19T09:51:35.531Z,66
2023-01-19T09:53:41.702Z,78
2023-01-19T09:55:48.247Z,90
2023-01-19T09:57:59.187Z,113
2023-01-19T09:59:02.469Z,133
2023-01-19T10:01:09.713Z,120
2023-01-19T10:02:12.847Z,241
2023-01-19T10:04:19.396Z,150
2023-01-19T10:06:26.120Z,268
2023-01-19T10:07:29.770Z,277
2023-01-19T10:09:36.267Z,523
2023-01-19T10:11:55.262Z,204
2023-01-19T10:13:00.872Z,263
2023-01-19T10:15:07.665Z,421
2023-01-19T10:17:13.494Z,604
2023-01-19T10:18:16.651Z,590
2023-01-19T10:19:19.752Z,502
2023-01-19T10:20:22.807Z,185
2023-01-19T10:22:31.092Z,113
2023-01-19T10:23:34.973Z,106
2023-01-19T10:24:38.780Z,93
2023-01-19T10:25:42.789Z,91
2023-01-19T10:27:48.941Z,96
2023-01-19T10:28:53.561Z,110
2023-01-19T10:29:57.382Z,139
2023-01-19T10:31:01.807Z,163
2023-01-19T10:33:09.498Z,194
2023-01-19T10:35:16.664Z,215
2023-01-19T10:36:19.449Z,309
2023-01-19T10:38:26.301Z,278
2023-01-19T10:40:34.006Z,245
2023-01-19T10:41:37.938Z,282
2023-01-19T10:43:45.257Z,257
2023-01-19T10:45:53.554Z,663
2023-01-19T10:46:56.580Z,642
2023-01-19T10:48:00.318Z,636
2023-01-19T10:49:03.694Z,589
2023-01-19T10:51:10.032Z,536
2023-01-19T10:52:13.219Z,507
2023-01-19T10:54:19.810Z,566
2023-01-19T10:56:27.223Z,653
2023-01-19T10:57:30.659Z,676
2023-01-19T10:58:33.918Z,688
2023-01-19T10:59:37.136Z,719
2023-01-19T11:01:46.882Z,707
2023-01-19T11:02:49.765Z,570
2023-01-19T11:04:57.061Z,324
2023-01-19T11:07:03.220Z,269
2023-01-19T11:08:06.599Z,290
2023-01-19T11:10:12.463Z,324
2023-01-19T11:12:18.700Z,312
2023-01-19T11:13:21.921Z,438
2023-01-19T11:14:25.229Z,543
2023-01-19T11:15:28.530Z,644
2023-01-19T11:17:36.760Z,653
2023-01-19T11:18:39.978Z,629
2023-01-19T11:20:45.849Z,635
2023-01-19T11:22:53.162Z,611
2023-01-19T11:23:56.617Z,623
2023-01-19T11:25:00.313Z,617
2023-01-19T11:26:03.555Z,585
2023-01-19T11:28:10.254Z,535
2023-01-19T11:29:13.616Z,505
2023-01-19T11:31:21.348Z,462
2023-01-19T11:33:28.688Z,385
2023-01-19T11:35:35.807Z,427
2023-01-19T11:36:38.936Z,211
2023-01-19T11:38:45.432Z,286
2023-01-19T11:40:53.036Z,108
2023-01-19T11:41:56.423Z,92
2023-01-19T11:44:04.284Z,90
2023-01-19T11:46:10.071Z,185
2023-01-19T11:47:13.419Z,199
2023-01-19T11:49:20.594Z,276
2023-01-19T11:51:27.856Z,355
2023-01-19T11:52:30.961Z,179
2023-01-19T11:54:37.146Z,112
2023-01-19T11:55:39.880Z,97
2023-01-19T11:57:47.685Z,127
2023-01-19T11:59:53.934Z,97
2023-01-19T12:02:01.123Z,117
2023-01-19T12:03:04.417Z,126
2023-01-19T12:05:12.469Z,132
2023-01-19T12:06:15.304Z,118
2023-01-19T12:08:21.822Z,95
2023-01-19T12:10:29.427Z,93
2023-01-19T12:11:32.841Z,92
2023-01-19T12:13:40.267Z,72
2023-01-19T12:14:43.020Z,73
2023-01-19T12:15:46.016Z,81
2023-01-19T12:16:49.163Z,79
2023-01-19T12:18:55.434Z,73
2023-01-19T12:19:59.125Z,77
2023-01-19T12:22:09.752Z,80
2023-01-19T12:24:16.425Z,60
2023-01-19T12:25:19.862Z,60
2023-01-19T12:27:27.226Z,50
2023-01-19T12:29:33.196Z,51
2023-01-19T12:31:41.604Z,42
2023-01-19T12:32:45.019Z,40
2023-01-19T12:34:52.342Z,40
2023-01-19T12:35:56.344Z,46
2023-01-19T12:37:00.189Z,49
2023-01-19T12:38:03.658Z,50
2023-01-19T12:40:10.226Z,53
2023-01-19T12:41:12.675Z,57
2023-01-19T12:43:18.846Z,57
2023-01-19T12:45:25.945Z,72
2023-01-19T12:46:29.764Z,80
2023-01-19T12:48:36.331Z,109
2023-01-19T12:50:43.213Z,93
2023-01-19T12:51:46.813Z,80
2023-01-19T12:53:53.641Z,65
2023-01-19T12:54:57.002Z,57
2023-01-19T12:57:04.131Z,55
2023-01-19T12:59:10.658Z,58
2023-01-19T13:00:14.365Z,60
2023-01-19T13:02:22.624Z,73
2023-01-19T13:04:28.963Z,68
2023-01-19T13:06:38.416Z,60
2023-01-19T13:07:42.533Z,58
2023-01-19T13:09:49.782Z,59
2023-01-19T13:10:52.518Z,57
2023-01-19T13:12:03.191Z,54
2023-01-19T13:13:06.024Z,55
2023-01-19T13:15:12.447Z,64
2023-01-19T13:16:16.276Z,78
2023-01-19T13:17:19.979Z,77
2023-01-19T13:18:23.083Z,77
2023-01-19T13:20:30.144Z,68
2023-01-19T13:21:34.164Z,73
2023-01-19T13:23:40.992Z,81
2023-01-19T13:25:47.568Z,85
2023-01-19T13:27:54.305Z,79
2023-01-19T13:28:57.621Z,73
2023-01-19T13:31:07.655Z,63
2023-01-19T13:33:13.812Z,61
2023-01-19T13:34:16.937Z,54
2023-01-19T13:36:23.152Z,53
2023-01-19T13:38:29.168Z,46
2023-01-19T13:39:33.295Z,46
2023-01-19T13:41:41.230Z,36
2023-01-19T13:43:47.715Z,35
2023-01-19T13:44:51.442Z,35
2023-01-19T13:46:59.419Z,39
2023-01-19T13:49:05.408Z,34
2023-01-19T13:50:08.593Z,36
2023-01-19T13:52:14.682Z,31
2023-01-19T13:54:22.244Z,33
2023-01-19T13:56:30.498Z,32
2023-01-19T13:57:34.047Z,32
2023-01-19T13:59:40.670Z,34
2023-01-19T14:01:49.169Z,35
2023-01-19T14:03:56.616Z,38
2023-01-19T14:04:59.802Z,36
2023-01-19T14:07:05.593Z,29
2023-01-19T14:08:08.557Z,27
2023-01-19T14:09:12.374Z,26
2023-01-19T14:10:15.739Z,26
2023-01-19T14:12:23.176Z,20
2023-01-19T14:13:26.692Z,18
2023-01-19T14:14:30.065Z,16
2023-01-19T14:15:34.113Z,15
2023-01-19T14:17:40.797Z,14
2023-01-19T14:19:47.876Z,13
2023-01-19T14:20:50.697Z,14
2023-01-19T14:22:57.214Z,14
2023-01-19T14:25:04.311Z,13
2023-01-19T14:27:11.012Z,11
2023-01-19T14:28:14.429Z,9
2023-01-19T14:30:22.257Z,8
2023-01-19T14:32:30.051Z,7
2023-01-19T14:33:33.480Z,7
2023-01-19T14:35:40.537Z,6
2023-01-19T14:37:47.287Z,7
2023-01-19T14:39:53.866Z,8
2023-01-19T14:40:57.052Z,8
2023-01-19T14:43:04.698Z,9
2023-01-19T14:45:12.676Z,8
2023-01-19T14:46:15.915Z,8
2023-01-19T14:48:22.237Z,8
2023-01-19T14:50:28.249Z,7
2023-01-19T14:52:34.741Z,7
2023-01-19T14:53:38.044Z,7
2023-01-19T14:55:45.570Z,6
2023-01-19T14:57:51.444Z,5
2023-01-19T14:58:54.774Z,5
2023-01-19T14:59:57.726Z,5
2023-01-19T15:01:02.009Z,5
2023-01-19T15:03:10.023Z,6
2023-01-19T15:04:13.371Z,5
2023-01-19T15:05:16.688Z,5
2023-01-19T15:06:20.478Z,5
2023-01-19T15:08:26.373Z,4
2023-01-19T15:10:33.226Z,3
2023-01-19T15:11:36.787Z,3
2023-01-19T15:13:44.623Z,3
2023-01-19T15:15:52.103Z,3
2023-01-19T15:17:58.760Z,2
2023-01-19T15:19:02.337Z,2
2023-01-19T15:21:09.273Z,2
2023-01-19T15:23:16.409Z,1
2023-01-19T15:25:23.004Z,1
2023-01-19T15:26:26.797Z,1
2023-01-19T15:28:32.881Z,1
2023-01-19T15:30:40.978Z,1
2023-01-19T15:31:45.249Z,1
2023-01-19T15:32:48.745Z,1
2023-01-19T15:33:50.902Z,1
2023-01-19T15:35:58.192Z,0
2023-01-19T15:37:01.844Z,0
2023-01-19T15:38:05.487Z,0
2023-01-19T15:39:08.670Z,0
2023-01-19T15:41:15.329Z,0
2023-01-19T15:43:21.319Z,0
2023-01-19T15:44:24.710Z,0
2023-01-19T15:46:31.435Z,0
2023-01-19T15:48:37.160Z,0
2023-01-19T15:50:44.169Z,0
2023-01-19T15:51:47.279Z,0
2023-01-19T15:53:53.784Z,0
2023-01-19T15:56:00.588Z,0
2023-01-19T15:58:07.803Z,0
2023-01-19T15:59:10.659Z,0
2023-01-19T16:01:18.093Z,0
2023-01-19T16:03:26.961Z,0
2023-01-19T16:05:45.261Z,0
2023-01-19T16:07:52.652Z,0
2023-01-19T16:08:55.645Z,0
2023-01-19T16:11:01.161Z,0
2023-01-19T16:13:07.116Z,0
2023-01-19T16:15:14.033Z,0
2023-01-19T16:16:17.647Z,0
2023-01-19T16:18:24.237Z,0
2023-01-19T16:20:30.876Z,0
2023-01-19T16:22:38.040Z,0
2023-01-19T16:23:41.391Z,0
2023-01-19T16:25:48.301Z,0
2023-01-19T16:27:54.852Z,0
2023-01-19T16:28:58.301Z,0
2023-01-19T16:30:02.090Z,0
2023-01-19T16:31:05.612Z,0
2023-01-19T16:33:11.197Z,0
2023-01-19T16:34:15.307Z,0
2023-01-19T16:35:18.696Z,0
2023-01-19T16:36:22.443Z,0
2023-01-19T16:38:32.140Z,0
2023-01-19T16:40:38.188Z,0
2023-01-19T16:41:41.548Z,0
2023-01-19T16:43:48.961Z,0
2023-01-19T16:45:56.972Z,0
2023-01-19T16:48:04.031Z,0
2023-01-19T16:49:07.127Z,0
2023-01-19T16:51:17.609Z,0
2023-01-19T16:53:24.280Z,0
2023-01-19T16:55:30.214Z,0
2023-01-19T16:56:33.509Z,0
2023-01-19T16:58:39.693Z,0
2023-01-19T17:00:47.642Z,0
2023-01-19T17:02:55.318Z,0
2023-01-19T17:03:58.778Z,0
2023-01-19T17:06:06.629Z,0
2023-01-19T17:08:13.245Z,0
2023-01-19T17:10:19.670Z,0
2023-01-19T17:11:22.679Z,0
2023-01-19T17:13:28.903Z,0
2023-01-19T17:15:35.754Z,0
2023-01-19T17:17:42.352Z,0
2023-01-19T17:18:46.163Z,0
2023-01-19T17:20:53.111Z,0
2023-01-19T17:23:00.931Z,0
2023-01-19T17:25:07.811Z,0
2023-01-19T17:26:11.973Z,0
2023-01-19T17:28:19.429Z,0
2023-01-19T17:30:26.613Z,0
2023-01-19T17:32:34.959Z,0
2023-01-19T17:33:38.544Z,0
2023-01-19T17:35:48.280Z,0
2023-01-19T17:37:55.723Z,0
2023-01-19T17:40:03.131Z,0
2023-01-19T17:41:06.503Z,0
2023-01-19T17:43:13.561Z,0
2023-01-19T17:45:20.333Z,0
2023-01-19T17:46:24.229Z,0
2023-01-19T17:47:28.018Z,0
2023-01-19T17:48:31.509Z,0
2023-01-19T17:50:38.527Z,0
2023-01-19T17:52:45.875Z,0
2023-01-19T17:53:49.996Z,0
2023-01-19T17:55:56.760Z,0
2023-01-19T17:58:02.967Z,0
2023-01-19T18:00:12.757Z,0
2023-01-19T18:01:19.892Z,0
2023-01-19T18:02:25.211Z,0
2023-01-19T18:03:28.974Z,0
2023-01-19T18:05:37.788Z,0
2023-01-19T18:07:45.120Z,0
2023-01-19T18:08:48.530Z,0
2023-01-19T18:09:52.299Z,0
2023-01-19T18:10:55.983Z,0
2023-01-19T18:13:02.324Z,0
2023-01-19T18:14:05.660Z,0
2023-01-19T18:15:09.369Z,0
2023-01-19T18:16:12.092Z,0
2023-01-19T18:18:18.913Z,0
2023-01-19T18:20:26.125Z,0
2023-01-19T18:21:29.485Z,0
2023-01-19T18:23:35.987Z,0
2023-01-19T18:25:42.516Z,0
2023-01-19T18:27:49.636Z,0
2023-01-19T18:28:53.014Z,0
2023-01-19T18:31:00.795Z,0
2023-01-19T18:33:06.565Z,0
2023-01-19T18:35:12.543Z,0
2023-01-19T18:36:15.962Z,0
2023-01-19T18:38:21.909Z,0
2023-01-19T18:40:28.780Z,0
2023-01-19T18:42:35.921Z,0
2023-01-19T18:43:38.648Z,0
2023-01-19T18:45:44.695Z,0
2023-01-19T18:47:50.567Z,0
2023-01-19T18:49:57.132Z,0
2023-01-19T18:51:00.493Z,0
2023-01-19T18:53:06.998Z,0
2023-01-19T18:55:13.236Z,0
2023-01-19T18:57:20.442Z,0
2023-01-19T18:58:24.169Z,0
2023-01-19T19:00:30.300Z,0
2023-01-19T19:02:39.755Z,0
2023-01-19T19:04:46.470Z,0
2023-01-19T19:05:50.070Z,0
2023-01-19T19:07:56.704Z,0
2023-01-19T19:10:03.202Z,0
2023-01-19T19:12:09.448Z,0
2023-01-19T19:13:13.174Z,0
2023-01-19T19:15:20.955Z,0
2023-01-19T19:17:28.220Z,0
2023-01-19T19:19:35.006Z,0
2023-01-19T19:20:38.278Z,0
2023-01-19T19:21:40.708Z,0
2023-01-19T19:22:43.707Z,0
2023-01-19T19:24:50.243Z,0
2023-01-19T19:25:53.079Z,0
2023-01-19T19:27:59.342Z,0
2023-01-19T19:30:06.881Z,0
2023-01-19T19:31:10.963Z,0
2023-01-19T19:33:17.686Z,0
2023-01-19T19:35:24.506Z,0
2023-01-19T19:37:30.139Z,0
2023-01-19T19:38:33.239Z,0
2023-01-19T19:40:39.950Z,0
2023-01-19T19:42:47.215Z,0
2023-01-19T19:44:54.412Z,0
2023-01-19T19:45:58.103Z,0
2023-01-19T19:48:04.560Z,0
2023-01-19T19:50:12.220Z,0
2023-01-19T19:52:24.869Z,0
2023-01-19T19:53:27.892Z,0
2023-01-19T19:55:34.011Z,0
2023-01-19T19:57:41.240Z,0
2023-01-19T19:58:44.501Z,0
2023-01-19T19:59:47.573Z,0
2023-01-19T20:00:52.608Z,0
2023-01-19T20:02:59.219Z,0
2023-01-19T20:04:02.914Z,0
2023-01-19T20:05:06.577Z,0
2023-01-19T20:06:09.693Z,0
2023-01-19T20:08:15.560Z,0
2023-01-19T20:09:18.643Z,0
2023-01-19T20:10:21.415Z,0
2023-01-19T20:11:24.733Z,0
2023-01-19T20:13:31.045Z,0
2023-01-19T20:15:37.562Z,0
2023-01-19T20:16:41.061Z,0
2023-01-19T20:18:48.101Z,0
2023-01-19T20:20:53.908Z,0
2023-01-19T20:23:00.487Z,0
2023-01-19T20:24:03.611Z,0
2023-01-19T20:26:09.800Z,0
2023-01-19T20:28:16.344Z,0
2023-01-19T20:30:23.896Z,0
2023-01-19T20:31:27.946Z,0
2023-01-19T20:33:35.444Z,0
2023-01-19T20:35:41.818Z,0
2023-01-19T20:36:45.083Z,0
2023-01-19T20:37:48.417Z,0
2023-01-19T20:38:51.511Z,0
2023-01-19T20:40:57.686Z,0
2023-01-19T20:43:04.959Z,0
2023-01-19T20:44:08.041Z,0
2023-01-19T20:46:16.043Z,0
2023-01-19T20:48:22.892Z,0
2023-01-19T20:50:29.542Z,0
2023-01-19T20:51:33.033Z,0
2023-01-19T20:53:39.411Z,0
2023-01-19T20:55:45.239Z,0
2023-01-19T20:57:51.412Z,0
2023-01-19T20:58:54.559Z,0
2023-01-19T21:01:01.491Z,0
2023-01-19T21:03:07.949Z,0
2023-01-19T21:05:16.659Z,0
2023-01-19T21:06:20.107Z,0
2023-01-19T21:08:26.528Z,0
2023-01-19T21:10:32.454Z,0
2023-01-19T21:12:39.273Z,0
2023-01-19T21:13:42.636Z,0
2023-01-19T21:15:49.528Z,0
2023-01-19T21:17:54.777Z,0
2023-01-19T21:20:01.877Z,0
2023-01-19T21:21:04.734Z,0
2023-01-19T21:23:11.329Z,0
2023-01-19T21:25:17.366Z,0
2023-01-19T21:26:20.358Z,0
2023-01-19T21:27:23.435Z,0
2023-01-19T21:28:26.807Z,0
2023-01-19T21:30:33.851Z,0
2023-01-19T21:31:37.929Z,0
2023-01-19T21:32:41.262Z,0
2023-01-19T21:33:44.034Z,0
2023-01-19T21:35:50.918Z,0
2023-01-19T21:36:54.115Z,0
2023-01-19T21:37:56.902Z,0
2023-01-19T21:39:00.709Z,0
2023-01-19T21:41:06.927Z,0
2023-01-19T21:43:12.828Z,0
2023-01-19T21:44:15.875Z,0
2023-01-19T21:46:22.364Z,0
2023-01-19T21:48:28.878Z,0
2023-01-19T21:50:35.704Z,0
2023-01-19T21:51:39.463Z,0
2023-01-19T21:53:46.669Z,0
2023-01-19T21:55:53.249Z,0
2023-01-19T21:57:59.611Z,0
2023-01-19T21:59:03.410Z,0
2023-01-19T22:01:10.414Z,0
2023-01-19T22:03:18.595Z,0
2023-01-19T22:05:24.595Z,0
2023-01-19T22:06:27.732Z,0
2023-01-19T22:08:35.670Z,0
2023-01-19T22:10:41.115Z,0
2023-01-19T22:12:47.647Z,0
2023-01-19T22:13:50.531Z,0
2023-01-19T22:15:56.649Z,0
2023-01-19T22:18:03.093Z,0
2023-01-19T22:20:09.424Z,0
2023-01-19T22:21:12.119Z,0
2023-01-19T22:23:18.754Z,0
2023-01-19T22:25:25.458Z,0
2023-01-19T22:26:28.735Z,0
2023-01-19T22:27:31.568Z,0
2023-01-19T22:28:34.640Z,0
2023-01-19T22:30:41.318Z,0
2023-01-19T22:32:47.697Z,0
2023-01-19T22:33:51.046Z,0
2023-01-19T22:35:57.607Z,0
2023-01-19T22:38:04.018Z,0
2023-01-19T22:39:08.162Z,0
2023-01-19T22:40:11.943Z,0
2023-01-19T22:41:15.084Z,0
2023-01-19T22:43:21.172Z,0
2023-01-19T22:45:26.402Z,0
2023-01-19T22:46:30.332Z,0
2023-01-19T22:48:35.874Z,0
2023-01-19T22:50:42.150Z,0
2023-01-19T22:51:45.249Z,0
2023-01-19T22:52:48.693Z,0
2023-01-19T22:53:51.818Z,0
2023-01-19T22:55:59.187Z,0
2023-01-19T22:58:05.576Z,0
2023-01-19T22:59:08.932Z,0
2023-01-19T23:01:16.292Z,0
2023-01-19T23:02:23.496Z,0
2023-01-19T23:03:26.849Z,0
2023-01-19T23:05:32.949Z,0
2023-01-19T23:06:35.796Z,0
2023-01-19T23:08:42.526Z,0
2023-01-19T23:10:49.151Z,0
2023-01-19T23:12:55.745Z,0
2023-01-19T23:13:59.154Z,0
2023-01-19T23:16:05.189Z,0
2023-01-19T23:18:11.330Z,0
2023-01-19T23:20:17.886Z,0
2023-01-19T23:21:21.309Z,0
2023-01-19T23:23:27.427Z,0
2023-01-19T23:25:34.413Z,0
2023-01-19T23:27:41.376Z,0
2023-01-19T23:28:44.128Z,0
2023-01-19T23:30:50.327Z,0
2023-01-19T23:32:56.451Z,0
2023-01-19T23:33:59.647Z,0
2023-01-19T23:35:03.361Z,0
2023-01-19T23:36:07.075Z,0
2023-01-19T23:38:13.695Z,0
2023-01-19T23:39:16.603Z,0
2023-01-19T23:40:20.288Z,0
2023-01-19T23:41:23.027Z,0
2023-01-19T23:43:30.567Z,0
2023-01-19T23:45:37.085Z,0
2023-01-19T23:46:39.812Z,0
2023-01-19T23:48:46.239Z,0
2023-01-19T23:50:51.371Z,0
2023-01-19T23:52:57.586Z,0
2023-01-19T23:54:00.469Z,0
2023-01-19T23:56:05.988Z,0
2023-01-19T23:58:12.826Z,0
